createdAt,value
2018-01-23T00:00:11.664Z,22.20
2018-01-23T00:02:40.824Z,23.30
2018-01-23T00:05:09.405Z,23.97
2018-01-23T00:07:38.276Z,23.07
2018-01-23T00:10:07.305Z,24.40
2018-01-23T00:12:35.846Z,23.17
2018-01-23T00:15:04.776Z,23.30
2018-01-23T00:17:33.339Z,23.03
2018-01-23T00:20:02.177Z,23.67
2018-01-23T00:22:31.112Z,21.93
2018-01-23T00:24:59.657Z,24.20
2018-01-23T00:27:28.598Z,24.40
2018-01-23T00:29:57.299Z,23.73
2018-01-23T00:32:26.060Z,24.17
2018-01-23T00:34:54.912Z,23.40
2018-01-23T00:37:24.709Z,23.30
2018-01-23T00:39:53.453Z,23.70
2018-01-23T00:42:22.204Z,22.37
2018-01-23T00:44:51.092Z,23.60
2018-01-23T00:47:19.720Z,22.53
2018-01-23T00:49:48.500Z,23.70
2018-01-23T00:52:17.253Z,23.57
2018-01-23T00:54:46.396Z,24.03
2018-01-23T00:57:14.981Z,24.60
2018-01-23T00:59:43.594Z,23.70
2018-01-23T01:02:19.251Z,24.60
2018-01-23T01:04:47.930Z,22.80
2018-01-23T01:07:16.813Z,25.70
2018-01-23T01:09:45.681Z,23.83
2018-01-23T01:12:14.380Z,24.97
2018-01-23T01:14:42.963Z,27.43
2018-01-23T01:17:11.710Z,25.60
2018-01-23T01:19:40.819Z,25.37
2018-01-23T01:22:09.536Z,25.73
2018-01-23T01:24:38.048Z,24.97
2018-01-23T01:27:06.760Z,24.13
2018-01-23T01:29:35.249Z,26.73
2018-01-23T01:32:03.802Z,24.07
2018-01-23T01:34:32.363Z,24.83
2018-01-23T01:37:00.953Z,24.20
2018-01-23T01:39:29.684Z,25.53
2018-01-23T01:41:58.414Z,26.37
2018-01-23T01:44:27.220Z,26.17
2018-01-23T01:46:55.715Z,26.47
2018-01-23T01:49:24.451Z,27.70
2018-01-23T01:51:53.288Z,27.60
2018-01-23T01:54:21.961Z,25.70
2018-01-23T01:56:51.081Z,28.43
2018-01-23T01:59:19.992Z,28.37
2018-01-23T02:01:48.503Z,27.03
2018-01-23T02:04:17.214Z,28.43
2018-01-23T02:06:46.076Z,28.83
2018-01-23T02:09:14.660Z,28.90
2018-01-23T02:11:43.287Z,28.87
2018-01-23T02:14:11.868Z,28.27
2018-01-23T02:16:40.717Z,27.60
2018-01-23T02:19:09.232Z,28.13
2018-01-23T02:21:37.819Z,28.63
2018-01-23T02:24:06.488Z,29.77
2018-01-23T02:26:35.039Z,30.10
2018-01-23T02:29:03.742Z,29.60
2018-01-23T02:31:32.499Z,29.17
2018-01-23T02:34:01.028Z,29.50
2018-01-23T02:36:29.539Z,32.43
2018-01-23T02:38:58.007Z,31.70
2018-01-23T02:41:26.822Z,30.30
2018-01-23T02:43:55.539Z,30.80
2018-01-23T02:46:24.056Z,31.93
2018-01-23T02:48:52.709Z,28.37
2018-01-23T02:51:21.445Z,29.67
2018-01-23T02:53:50.106Z,32.30
2018-01-23T02:56:18.713Z,31.50
2018-01-23T02:58:47.176Z,33.00
2018-01-23T03:01:16.081Z,33.30
2018-01-23T03:03:44.896Z,33.10
2018-01-23T03:06:13.760Z,30.90
2018-01-23T03:08:42.432Z,33.03
2018-01-23T03:11:10.975Z,35.03
2018-01-23T03:13:39.468Z,34.23
2018-01-23T03:16:08.129Z,35.63
2018-01-23T03:18:36.797Z,34.53
2018-01-23T03:21:05.482Z,33.33
2018-01-23T03:23:34.121Z,33.20
2018-01-23T03:26:02.892Z,34.17
2018-01-23T03:28:31.495Z,37.67
2018-01-23T03:31:00.269Z,38.30
2018-01-23T03:33:28.963Z,36.80
2018-01-23T03:35:57.701Z,37.50
2018-01-23T03:38:26.354Z,38.50
2018-01-23T03:40:54.944Z,38.90
2018-01-23T03:43:23.792Z,40.27
2018-01-23T03:45:52.371Z,36.83
2018-01-23T03:48:21.137Z,38.10
2018-01-23T03:50:49.705Z,37.50
2018-01-23T03:53:18.404Z,37.80
2018-01-23T03:55:47.160Z,38.80
2018-01-23T03:58:15.789Z,57.97
2018-01-23T04:00:44.340Z,41.10
2018-01-23T04:03:13.159Z,41.57
2018-01-23T04:05:41.723Z,37.30
2018-01-23T04:08:10.336Z,40.30
2018-01-23T04:10:39.083Z,65.57
2018-01-23T04:13:07.612Z,36.60
2018-01-23T04:15:36.193Z,36.10
2018-01-23T04:18:04.810Z,36.97
2018-01-23T04:20:33.528Z,35.50
2018-01-23T04:23:02.299Z,38.67
2018-01-23T04:25:30.952Z,36.73
2018-01-23T04:27:59.546Z,36.30
2018-01-23T04:30:28.284Z,34.70
2018-01-23T04:32:59.698Z,35.00
2018-01-23T04:35:28.700Z,37.00
2018-01-23T04:37:57.375Z,35.37
2018-01-23T04:40:26.174Z,36.27
2018-01-23T04:42:54.672Z,39.80
2018-01-23T04:45:23.501Z,36.37
2018-01-23T04:47:52.297Z,38.47
2018-01-23T04:50:20.880Z,36.50
2018-01-23T04:52:49.741Z,38.00
2018-01-23T04:55:18.465Z,37.93
2018-01-23T04:57:47.455Z,41.80
2018-01-23T05:03:12.286Z,36.53
2018-01-23T05:05:40.730Z,34.97
2018-01-23T05:08:09.190Z,34.20
2018-01-23T05:10:37.552Z,35.20
2018-01-23T05:13:05.931Z,30.63
2018-01-23T05:15:34.454Z,29.97
2018-01-23T05:18:02.736Z,30.10
2018-01-23T05:20:31.638Z,27.70
2018-01-23T05:23:00.708Z,28.27
2018-01-23T05:25:29.391Z,26.77
2018-01-23T05:27:57.876Z,27.20
2018-01-23T05:30:27.505Z,27.23
2018-01-23T05:32:58.209Z,29.60
2018-01-23T05:35:26.564Z,30.00
2018-01-23T05:37:55.892Z,30.73
2018-01-23T05:40:24.498Z,29.10
2018-01-23T05:42:52.801Z,28.53
2018-01-23T05:45:21.110Z,28.47
2018-01-23T05:47:49.471Z,26.83
2018-01-23T05:50:17.770Z,26.87
2018-01-23T05:52:46.104Z,26.90
2018-01-23T05:55:14.431Z,26.57
2018-01-23T05:57:42.735Z,26.30
2018-01-23T06:00:11.529Z,25.30
2018-01-23T06:02:39.958Z,25.43
2018-01-23T06:05:08.253Z,24.63
2018-01-23T06:07:36.703Z,25.57
2018-01-23T06:10:05.603Z,25.87
2018-01-23T06:12:33.887Z,25.00
2018-01-23T06:15:02.155Z,26.53
2018-01-23T06:17:30.598Z,25.27
2018-01-23T06:19:58.894Z,25.17
2018-01-23T06:22:27.419Z,25.00
2018-01-23T06:24:55.901Z,25.70
2018-01-23T06:27:24.233Z,25.80
2018-01-23T06:29:52.507Z,25.10
2018-01-23T06:32:20.827Z,24.40
2018-01-23T06:34:49.203Z,25.33
2018-01-23T06:37:17.730Z,24.50
2018-01-23T06:39:46.027Z,22.10
2018-01-23T06:42:14.406Z,23.23
2018-01-23T06:44:42.699Z,23.67
2018-01-23T06:47:11.101Z,23.20
2018-01-23T06:49:39.363Z,24.23
2018-01-23T06:52:08.100Z,25.20
2018-01-23T06:54:36.506Z,23.63
2018-01-23T06:57:04.856Z,24.30
2018-01-23T06:59:33.152Z,25.17
2018-01-23T07:02:01.583Z,24.30
2018-01-23T07:04:29.964Z,24.10
2018-01-23T07:06:59.360Z,27.60
2018-01-23T07:09:27.655Z,25.67
2018-01-23T07:11:56.119Z,23.07
2018-01-23T07:14:24.427Z,23.60
2018-01-23T07:16:52.773Z,24.30
2018-01-23T07:19:21.083Z,23.87
2018-01-23T07:21:49.745Z,22.47
2018-01-23T07:24:18.208Z,25.00
2018-01-23T07:26:46.536Z,21.70
2018-01-23T07:29:14.815Z,25.27
2018-01-23T07:31:43.345Z,25.67
2018-01-23T07:34:11.612Z,25.57
2018-01-23T07:36:39.907Z,27.53
2018-01-23T07:39:09.100Z,33.20
2018-01-23T07:41:37.511Z,27.50
2018-01-23T07:44:05.790Z,27.07
2018-01-23T07:46:34.103Z,26.77
2018-01-23T07:49:02.434Z,27.80
2018-01-23T07:51:30.739Z,26.63
2018-01-23T07:53:59.112Z,27.43
2018-01-23T07:56:27.552Z,27.77
2018-01-23T07:58:55.887Z,29.10
2018-01-23T08:01:24.192Z,28.13
2018-01-23T08:03:52.486Z,31.80
2018-01-23T08:06:20.869Z,31.60
2018-01-23T08:08:49.175Z,31.43
2018-01-23T08:11:17.572Z,32.03
2018-01-23T08:13:46.220Z,30.07
2018-01-23T08:16:14.540Z,31.77
2018-01-23T08:18:43.044Z,31.03
2018-01-23T08:21:11.358Z,31.07
2018-01-23T08:23:39.662Z,33.30
2018-01-23T08:26:14.795Z,31.07
2018-01-23T08:28:43.131Z,32.50
2018-01-23T08:31:11.483Z,33.33
2018-01-23T08:33:39.774Z,33.50
2018-01-23T08:36:08.076Z,32.97
2018-01-23T08:38:36.472Z,33.13
2018-01-23T08:41:04.799Z,32.37
2018-01-23T08:43:33.147Z,34.83
2018-01-23T08:46:01.490Z,35.60
2018-01-23T08:48:29.938Z,32.97
2018-01-23T08:50:58.257Z,33.50
2018-01-23T08:53:26.596Z,35.27
2018-01-23T08:55:54.959Z,34.90
2018-01-23T08:58:23.303Z,33.90
2018-01-23T09:00:51.757Z,37.03
2018-01-23T09:03:20.180Z,33.33
2018-01-23T09:05:48.503Z,36.50
2018-01-23T09:08:16.839Z,35.33
2018-01-23T09:10:45.242Z,35.20
2018-01-23T09:13:13.545Z,33.57
2018-01-23T09:15:41.985Z,30.93
2018-01-23T09:18:10.276Z,31.27
2018-01-23T09:20:38.674Z,33.13
2018-01-23T09:23:06.973Z,31.00
2018-01-23T09:25:35.543Z,28.30
2018-01-23T09:28:03.929Z,30.07
2018-01-23T09:30:32.271Z,32.90
2018-01-23T09:33:00.741Z,34.23
2018-01-23T09:35:29.244Z,34.10
2018-01-23T09:37:57.549Z,36.20
2018-01-23T09:40:25.867Z,36.23
2018-01-23T09:42:54.182Z,39.33
2018-01-23T09:45:22.503Z,38.70
2018-01-23T09:47:50.807Z,38.40
2018-01-23T09:50:19.326Z,36.80
2018-01-23T09:59:37.056Z,35.70
2018-01-23T10:02:05.368Z,34.77
2018-01-23T10:04:33.936Z,35.67
2018-01-23T10:07:02.355Z,36.33
2018-01-23T10:09:30.816Z,36.93
2018-01-23T10:11:59.191Z,36.37
2018-01-23T10:14:27.771Z,39.40
2018-01-23T10:16:56.155Z,35.50
2018-01-23T10:19:24.683Z,38.77
2018-01-23T10:21:53.111Z,38.83
2018-01-23T10:24:21.567Z,37.50
2018-01-23T10:26:49.923Z,37.87
2018-01-23T10:29:19.212Z,36.73
2018-01-23T10:31:47.672Z,35.60
2018-01-23T10:34:16.110Z,34.27
2018-01-23T10:36:44.497Z,37.57
2018-01-23T10:39:12.843Z,39.23
2018-01-23T10:41:41.207Z,35.87
2018-01-23T10:44:09.607Z,36.27
2018-01-23T10:46:37.999Z,33.60
2018-01-23T10:49:06.658Z,36.67
2018-01-23T10:51:35.067Z,36.70
2018-01-23T10:54:03.372Z,35.90
2018-01-23T10:56:31.735Z,32.37
2018-01-23T10:59:00.103Z,30.90
2018-01-23T11:01:32.674Z,30.80
2018-01-23T11:04:01.139Z,30.63
2018-01-23T11:06:29.463Z,31.10
2018-01-23T11:08:58.083Z,30.57
2018-01-23T11:11:26.404Z,30.63
2018-01-23T11:13:54.786Z,31.90
2018-01-23T11:16:23.184Z,29.40
2018-01-23T11:18:51.519Z,31.37
2018-01-23T11:21:20.268Z,30.77
2018-01-23T11:23:49.833Z,31.17
2018-01-23T11:26:18.331Z,30.80
2018-01-23T11:28:46.599Z,26.93
2018-01-23T11:31:14.956Z,27.47
2018-01-23T11:33:43.447Z,28.33
2018-01-23T11:36:11.775Z,29.03
2018-01-23T11:38:40.145Z,28.90
2018-01-23T11:41:08.488Z,27.70
2018-01-23T11:43:37.028Z,28.50
2018-01-23T11:46:05.362Z,28.80
2018-01-23T11:48:33.668Z,28.80
2018-01-23T11:51:01.987Z,30.30
2018-01-23T11:53:30.315Z,30.50
2018-01-23T11:55:59.063Z,28.60
2018-01-23T11:58:27.526Z,28.27
2018-01-23T12:00:56.018Z,29.97
2018-01-23T12:03:24.471Z,28.77
2018-01-23T12:05:52.788Z,29.37
2018-01-23T12:08:21.067Z,29.40
2018-01-23T12:10:49.535Z,28.50
2018-01-23T12:13:17.831Z,27.50
2018-01-23T12:15:46.239Z,26.90
2018-01-23T12:18:14.514Z,25.90
2018-01-23T12:20:43.017Z,26.90
2018-01-23T12:23:11.300Z,27.27
2018-01-23T12:25:39.698Z,25.00
2018-01-23T12:28:08.414Z,24.33
2018-01-23T12:30:36.795Z,24.67
2018-01-23T12:33:05.159Z,25.87
2018-01-23T12:35:34.094Z,26.33
2018-01-23T12:38:02.498Z,26.00
2018-01-23T12:40:31.386Z,24.63
2018-01-23T12:42:59.710Z,25.13
2018-01-23T12:45:35.009Z,24.47
2018-01-23T12:48:03.336Z,24.40
2018-01-23T12:50:31.670Z,23.63
2018-01-23T12:53:00.071Z,23.60
2018-01-23T12:55:28.388Z,27.17
2018-01-23T12:57:56.773Z,25.17
2018-01-23T13:00:25.087Z,27.47
2018-01-23T13:02:53.374Z,28.70
2018-01-23T13:05:21.764Z,26.03
2018-01-23T13:07:50.107Z,26.73
2018-01-23T13:10:18.640Z,25.63
2018-01-23T13:12:46.930Z,23.73
2018-01-23T13:15:15.367Z,26.83
2018-01-23T13:17:43.640Z,23.90
2018-01-23T13:20:11.992Z,24.90
2018-01-23T13:22:40.304Z,23.63
2018-01-23T13:25:08.626Z,26.20
2018-01-23T13:27:36.902Z,25.10
2018-01-23T13:30:05.425Z,24.70
2018-01-23T13:32:34.844Z,26.23
2018-01-23T13:35:03.220Z,24.40
2018-01-23T13:37:31.963Z,24.87
2018-01-23T13:40:00.739Z,25.67
2018-01-23T13:42:29.268Z,24.63
2018-01-23T13:44:58.707Z,26.70
2018-01-23T13:47:27.819Z,26.83
2018-01-23T13:49:56.785Z,27.30
2018-01-23T13:52:25.266Z,26.23
2018-01-23T13:54:53.684Z,29.03
2018-01-23T13:57:23.108Z,26.23
2018-01-23T13:59:51.387Z,29.07
2018-01-23T14:02:19.738Z,28.67
2018-01-23T14:04:48.031Z,27.40
2018-01-23T14:07:16.567Z,30.13
2018-01-23T14:09:44.890Z,27.70
2018-01-23T14:12:19.928Z,25.70
2018-01-23T14:14:48.326Z,28.20
2018-01-23T14:17:16.697Z,29.90
2018-01-23T14:19:45.027Z,29.53
2018-01-23T14:22:13.386Z,28.97
2018-01-23T14:24:41.860Z,29.57
2018-01-23T14:27:10.211Z,30.30
2018-01-23T14:29:38.570Z,28.20
2018-01-23T14:32:07.819Z,29.03
2018-01-23T14:34:36.578Z,27.37
2018-01-23T14:37:05.081Z,27.50
2018-01-23T14:39:34.364Z,27.00
2018-01-23T14:42:02.674Z,26.40
2018-01-23T14:44:30.951Z,28.17
2018-01-23T14:46:59.387Z,27.00
2018-01-23T14:49:27.715Z,24.33
2018-01-23T14:51:56.174Z,25.80
2018-01-23T14:54:24.489Z,28.40
2018-01-23T14:56:53.680Z,27.03
2018-01-23T14:59:21.993Z,26.40
2018-01-23T15:01:50.348Z,25.40
2018-01-23T15:04:18.730Z,25.80
2018-01-23T15:06:47.050Z,25.57
2018-01-23T15:09:15.370Z,26.37
2018-01-23T15:11:43.746Z,24.77
2018-01-23T15:14:12.034Z,27.23
2018-01-23T15:16:40.355Z,25.67
2018-01-23T15:19:09.466Z,24.83
2018-01-23T15:21:37.759Z,25.20
2018-01-23T15:24:06.079Z,27.20
2018-01-23T15:26:34.491Z,25.20
2018-01-23T15:29:02.783Z,25.77
2018-01-23T15:31:31.124Z,27.07
2018-01-23T15:33:59.631Z,26.60
2018-01-23T15:36:28.112Z,25.77
2018-01-23T15:38:56.431Z,26.97
2018-01-23T15:41:24.771Z,25.47
2018-01-23T15:43:53.078Z,25.27
2018-01-23T15:46:21.391Z,26.37
2018-01-23T15:48:49.697Z,24.27
2018-01-23T15:51:18.000Z,25.17
2018-01-23T15:53:46.308Z,24.00
2018-01-23T15:56:14.660Z,25.57
2018-01-23T15:58:42.983Z,27.53
2018-01-23T16:01:11.317Z,26.37
2018-01-23T16:03:39.912Z,27.30
2018-01-23T16:06:08.354Z,27.90
2018-01-23T16:08:36.680Z,26.57
2018-01-23T16:11:04.693Z,26.17
2018-01-23T16:13:33.043Z,27.57
2018-01-23T16:16:01.418Z,27.07
2018-01-23T16:18:29.790Z,26.70
2018-01-23T16:20:58.238Z,27.67
2018-01-23T16:23:26.526Z,27.00
2018-01-23T16:25:54.831Z,28.07
2018-01-23T16:28:23.316Z,26.37
2018-01-23T16:30:51.727Z,27.40
2018-01-23T16:33:20.250Z,29.80
2018-01-23T16:35:48.557Z,29.20
2018-01-23T16:38:16.849Z,28.70
2018-01-23T16:40:45.146Z,30.17
2018-01-23T16:43:13.427Z,30.33
2018-01-23T16:45:41.866Z,29.43
2018-01-23T16:48:10.161Z,30.67
2018-01-23T16:50:38.749Z,30.27
2018-01-23T16:53:07.048Z,31.50
2018-01-23T16:55:35.363Z,29.50
2018-01-23T16:58:03.694Z,30.03
2018-01-23T17:00:32.004Z,32.20
2018-01-23T17:03:00.406Z,32.43
2018-01-23T17:05:28.723Z,30.07
2018-01-23T17:07:57.154Z,29.63
2018-01-23T17:10:25.465Z,30.33
2018-01-23T17:12:53.766Z,30.40
2018-01-23T17:15:22.083Z,30.77
2018-01-23T17:17:50.403Z,30.10
2018-01-23T17:20:18.830Z,34.20
2018-01-23T17:22:47.177Z,30.47
2018-01-23T17:25:15.502Z,30.27
2018-01-23T17:27:43.775Z,29.47
2018-01-23T17:30:12.272Z,31.83
2018-01-23T17:32:40.732Z,29.37
2018-01-23T17:35:09.213Z,30.53
2018-01-23T17:37:37.567Z,30.30
2018-01-23T17:40:05.898Z,29.40
2018-01-23T17:42:34.200Z,28.13
2018-01-23T17:45:02.630Z,30.67
2018-01-23T17:47:31.137Z,30.70
2018-01-23T17:49:59.486Z,30.00
2018-01-23T17:52:27.858Z,29.93
2018-01-23T17:54:57.878Z,31.60
2018-01-23T17:57:26.231Z,32.17
2018-01-23T17:59:54.719Z,31.97
2018-01-23T18:02:23.020Z,31.60
2018-01-23T18:04:51.388Z,30.63
2018-01-23T18:07:19.711Z,29.60
2018-01-23T18:09:48.168Z,29.33
2018-01-23T18:12:16.516Z,29.30
2018-01-23T18:14:45.103Z,59.00
2018-01-23T18:17:13.582Z,31.30
2018-01-23T18:19:41.915Z,30.80
2018-01-23T18:22:10.219Z,32.37
2018-01-23T18:24:38.816Z,32.93
2018-01-23T18:27:07.320Z,30.53
2018-01-23T18:29:35.733Z,34.87
2018-01-23T18:32:04.305Z,32.90
2018-01-23T18:34:32.619Z,30.87
2018-01-23T18:37:00.956Z,29.50
2018-01-23T18:39:29.259Z,29.13
2018-01-23T18:41:57.594Z,29.70
2018-01-23T18:44:26.064Z,27.00
2018-01-23T18:46:54.603Z,28.40
2018-01-23T18:49:23.227Z,27.90
2018-01-23T18:51:51.737Z,26.77
2018-01-23T18:54:20.054Z,29.00
2018-01-23T18:56:48.370Z,21.60
2018-01-23T18:59:16.703Z,24.73
2018-01-23T19:01:45.020Z,23.70
2018-01-23T19:04:13.314Z,24.50
2018-01-23T19:06:41.687Z,20.90
2018-01-23T19:09:09.999Z,23.47
2018-01-23T19:11:38.325Z,22.87
2018-01-23T19:14:06.810Z,22.67
2018-01-23T19:16:35.182Z,23.00
2018-01-23T19:19:03.698Z,21.53
2018-01-23T19:21:32.178Z,20.37
2018-01-23T19:24:00.507Z,21.73
2018-01-23T19:26:28.895Z,21.67
2018-01-23T19:28:57.378Z,23.80
2018-01-23T19:31:25.701Z,20.60
2018-01-23T19:33:54.815Z,20.07
2018-01-23T19:36:23.669Z,19.40
2018-01-23T19:38:52.114Z,20.30
2018-01-23T19:41:20.857Z,21.10
2018-01-23T19:43:49.250Z,20.40
2018-01-23T19:46:17.557Z,19.27
2018-01-23T19:48:46.167Z,19.50
2018-01-23T19:51:14.495Z,19.60
2018-01-23T19:53:43.220Z,21.47
2018-01-23T19:56:12.430Z,19.47
2018-01-23T19:58:40.867Z,19.50
2018-01-23T20:01:09.187Z,19.00
2018-01-23T20:03:39.686Z,19.40
2018-01-23T20:06:08.450Z,18.30
2018-01-23T20:08:37.527Z,19.70
2018-01-23T20:11:07.238Z,19.23
2018-01-23T20:13:35.543Z,18.00
2018-01-23T20:16:03.859Z,17.43
2018-01-23T20:18:33.246Z,18.43
2018-01-23T20:21:02.703Z,17.83
2018-01-23T20:23:32.484Z,17.03
2018-01-23T20:26:02.304Z,17.00
2018-01-23T20:28:31.717Z,18.30
2018-01-23T20:31:01.137Z,16.63
2018-01-23T20:33:30.048Z,16.53
2018-01-23T20:35:59.801Z,17.60
2018-01-23T20:38:28.535Z,16.40
2018-01-23T20:40:57.075Z,16.37
2018-01-23T20:43:27.098Z,15.90
2018-01-23T20:45:57.297Z,16.73
2018-01-23T20:48:25.611Z,16.00
2018-01-23T20:50:55.597Z,15.73
2018-01-23T20:53:24.118Z,15.60
2018-01-23T20:55:53.924Z,15.40
2018-01-23T20:58:22.212Z,16.67
2018-01-23T21:00:50.574Z,15.00
2018-01-23T21:03:19.227Z,15.53
2018-01-23T21:05:47.838Z,14.83
2018-01-23T21:08:16.395Z,15.70
2018-01-23T21:10:44.881Z,15.13
2018-01-23T21:13:13.631Z,15.90
2018-01-23T21:15:42.252Z,13.90
2018-01-23T21:18:10.522Z,15.30
2018-01-23T21:20:39.021Z,15.50
2018-01-23T21:23:07.413Z,14.40
2018-01-23T21:25:35.747Z,14.90
2018-01-23T21:28:04.214Z,13.90
2018-01-23T21:30:35.109Z,13.73
2018-01-23T21:33:07.399Z,14.57
2018-01-23T21:35:36.368Z,13.03
2018-01-23T21:38:06.140Z,12.53
2018-01-23T21:40:34.942Z,13.40
2018-01-23T21:43:03.298Z,13.50
2018-01-23T21:45:34.917Z,12.57
2018-01-23T21:48:03.871Z,13.60
2018-01-23T21:50:33.180Z,13.17
2018-01-23T21:53:02.117Z,13.80
2018-01-23T21:55:30.972Z,11.00
2018-01-23T21:58:00.197Z,12.30
2018-01-23T22:00:28.667Z,11.87
2018-01-23T22:02:57.132Z,12.40
2018-01-23T22:05:25.492Z,11.60
2018-01-23T22:07:53.786Z,11.70
2018-01-23T22:10:22.213Z,10.43
2018-01-23T22:12:50.531Z,11.60
2018-01-23T22:15:18.858Z,10.23
2018-01-23T22:17:47.444Z,10.63
2018-01-23T22:20:15.754Z,10.70
2018-01-23T22:22:44.074Z,10.00
2018-01-23T22:25:12.531Z,10.73
2018-01-23T22:27:40.822Z,9.67
2018-01-23T22:30:09.297Z,9.50
2018-01-23T22:32:37.611Z,8.70
2018-01-23T22:35:07.015Z,9.83
2018-01-23T22:37:35.285Z,9.10
2018-01-23T22:40:03.806Z,10.00
2018-01-23T22:42:32.231Z,9.17
2018-01-23T22:45:00.707Z,9.60
2018-01-23T22:47:31.271Z,8.83
2018-01-23T22:49:59.596Z,9.33
2018-01-23T22:52:27.930Z,9.57
2018-01-23T22:54:56.236Z,9.23
2018-01-23T22:57:24.552Z,8.87
2018-01-23T22:59:52.832Z,8.07
2018-01-23T23:02:21.196Z,9.30
2018-01-23T23:04:49.519Z,7.90
2018-01-23T23:07:18.005Z,8.90
2018-01-23T23:09:46.392Z,8.37
2018-01-23T23:12:14.698Z,8.80
2018-01-23T23:14:42.971Z,8.57
2018-01-23T23:17:11.461Z,8.40
2018-01-23T23:19:39.721Z,8.70
2018-01-23T23:22:08.486Z,8.70
2018-01-23T23:24:36.842Z,9.00
2018-01-23T23:27:06.372Z,8.20
2018-01-23T23:29:35.005Z,9.33
2018-01-23T23:32:04.460Z,8.83
2018-01-23T23:34:36.534Z,7.63
2018-01-23T23:37:06.223Z,8.33
2018-01-23T23:39:34.933Z,8.90
2018-01-23T23:42:03.248Z,8.43
2018-01-23T23:44:31.565Z,8.57
2018-01-23T23:46:59.862Z,8.60
2018-01-23T23:49:28.184Z,8.03
2018-01-23T23:51:56.527Z,8.70
2018-01-23T23:54:24.872Z,8.67
2018-01-23T23:56:53.550Z,10.00
2018-01-23T23:59:53.634Z,9.30
